createdAt,value
2018-04-05T00:00:13.642Z,9.20
2018-04-05T00:01:13.649Z,9.15
2018-04-05T00:02:13.652Z,9.10
2018-04-05T00:03:13.662Z,9.18
2018-04-05T00:04:13.677Z,9.18
2018-04-05T00:05:13.677Z,9.06
2018-04-05T00:06:13.686Z,9.15
2018-04-05T00:07:13.697Z,9.05
2018-04-05T00:08:13.702Z,9.09
2018-04-05T00:09:13.716Z,9.25
2018-04-05T00:10:13.722Z,9.28
2018-04-05T00:11:13.727Z,9.18
2018-04-05T00:12:13.734Z,9.16
2018-04-05T00:13:13.755Z,9.16
2018-04-05T00:14:13.753Z,9.13
2018-04-05T00:15:13.760Z,9.15
2018-04-05T00:16:13.769Z,9.10
2018-04-05T00:17:13.777Z,9.09
2018-04-05T00:18:13.789Z,9.12
2018-04-05T00:19:13.794Z,9.12
2018-04-05T00:20:13.802Z,8.97
2018-04-05T00:21:13.812Z,8.99
2018-04-05T00:22:13.832Z,8.94
2018-04-05T00:23:13.825Z,9.15
2018-04-05T00:24:13.853Z,8.93
2018-04-05T00:25:13.844Z,8.91
2018-04-05T00:26:13.854Z,8.90
2018-04-05T00:27:13.859Z,8.83
2018-04-05T00:28:13.865Z,8.96
2018-04-05T00:29:13.876Z,8.97
2018-04-05T00:30:13.890Z,8.79
2018-04-05T00:31:13.892Z,8.79
2018-04-05T00:32:13.902Z,8.62
2018-04-05T00:33:13.908Z,8.69
2018-04-05T00:34:13.918Z,8.62
2018-04-05T00:35:13.928Z,8.73
2018-04-05T00:36:13.931Z,8.79
2018-04-05T00:37:13.942Z,8.84
2018-04-05T00:38:13.952Z,8.79
2018-04-05T00:39:13.959Z,8.83
2018-04-05T00:40:13.966Z,8.91
2018-04-05T00:41:13.975Z,8.88
2018-04-05T00:42:13.986Z,8.94
2018-04-05T00:43:14.008Z,8.90
2018-04-05T00:44:14.000Z,8.87
2018-04-05T00:45:14.006Z,8.90
2018-04-05T00:46:14.015Z,8.88
2018-04-05T00:47:14.026Z,8.83
2018-04-05T00:48:14.034Z,8.90
2018-04-05T00:49:14.042Z,8.81
2018-04-05T00:50:14.049Z,8.93
2018-04-05T00:51:14.056Z,8.83
2018-04-05T00:52:14.070Z,8.83
2018-04-05T00:53:14.072Z,8.87
2018-04-05T00:54:14.105Z,8.91
2018-04-05T00:55:14.090Z,8.90
2018-04-05T00:56:14.097Z,8.99
2018-04-05T00:57:14.107Z,8.90
2018-04-05T00:58:14.124Z,8.79
2018-04-05T00:59:14.123Z,8.88
2018-04-05T01:00:14.133Z,8.84
2018-04-05T01:01:14.137Z,8.81
2018-04-05T01:02:14.147Z,8.83
2018-04-05T01:03:14.155Z,8.93
2018-04-05T01:04:14.170Z,8.86
2018-04-05T01:05:14.172Z,8.76
2018-04-05T01:06:14.180Z,8.81
2018-04-05T01:07:14.189Z,8.75
2018-04-05T01:08:14.197Z,8.79
2018-04-05T01:09:14.205Z,8.75
2018-04-05T01:10:14.212Z,8.81
2018-04-05T01:11:14.220Z,8.79
2018-04-05T01:12:14.229Z,8.73
2018-04-05T01:13:14.239Z,8.71
2018-04-05T01:14:14.249Z,8.72
2018-04-05T01:15:14.254Z,8.72
2018-04-05T01:16:14.260Z,8.78
2018-04-05T01:17:14.269Z,8.71
2018-04-05T01:18:14.279Z,8.75
2018-04-05T01:19:14.292Z,8.75
2018-04-05T01:20:14.308Z,8.72
2018-04-05T01:21:14.300Z,8.68
2018-04-05T01:22:14.312Z,8.65
2018-04-05T01:23:14.319Z,8.69
2018-04-05T01:24:14.329Z,8.78
2018-04-05T01:25:14.339Z,8.65
2018-04-05T01:26:14.342Z,8.66
2018-04-05T01:27:14.357Z,8.69
2018-04-05T01:28:14.356Z,8.57
2018-04-05T01:29:14.365Z,8.63
2018-04-05T01:30:14.373Z,8.68
2018-04-05T01:31:14.380Z,8.63
2018-04-05T01:32:14.390Z,8.58
2018-04-05T01:33:14.397Z,8.55
2018-04-05T01:34:14.405Z,8.57
2018-04-05T01:35:14.413Z,8.50
2018-04-05T01:36:14.422Z,8.54
2018-04-05T01:37:14.433Z,8.62
2018-04-05T01:38:14.443Z,8.60
2018-04-05T01:39:14.445Z,8.60
2018-04-05T01:40:14.455Z,8.62
2018-04-05T01:41:14.466Z,8.51
2018-04-05T01:42:14.472Z,8.55
2018-04-05T01:43:14.476Z,8.55
2018-04-05T01:44:14.486Z,8.53
2018-04-05T01:45:14.499Z,8.48
2018-04-05T01:46:14.502Z,8.44
2018-04-05T01:47:14.515Z,8.54
2018-04-05T01:48:14.522Z,8.51
2018-04-05T01:49:14.528Z,8.55
2018-04-05T01:50:14.534Z,8.50
2018-04-05T01:51:14.541Z,8.50
2018-04-05T01:52:14.563Z,8.51
2018-04-05T01:53:14.561Z,8.50
2018-04-05T01:54:14.567Z,8.51
2018-04-05T01:55:14.574Z,8.65
2018-04-05T01:56:14.580Z,8.60
2018-04-05T01:57:14.589Z,8.58
2018-04-05T01:58:14.600Z,8.63
2018-04-05T01:59:14.605Z,8.57
2018-04-05T02:00:14.614Z,8.53
2018-04-05T02:01:14.629Z,8.65
2018-04-05T02:02:14.628Z,8.63
2018-04-05T02:03:14.639Z,8.58
2018-04-05T02:04:14.646Z,8.60
2018-04-05T02:05:14.656Z,8.66
2018-04-05T02:06:14.663Z,8.66
2018-04-05T02:07:15.645Z,8.68
2018-04-05T02:08:14.677Z,8.72
2018-04-05T02:09:14.684Z,8.71
2018-04-05T02:10:14.694Z,8.76
2018-04-05T02:11:14.700Z,8.71
2018-04-05T02:12:14.710Z,8.73
2018-04-05T02:13:14.719Z,8.65
2018-04-05T02:14:14.730Z,8.71
2018-04-05T02:15:14.734Z,8.68
2018-04-05T02:16:14.746Z,8.65
2018-04-05T02:17:14.751Z,8.60
2018-04-05T02:18:14.760Z,8.69
2018-04-05T02:19:14.764Z,8.69
2018-04-05T02:20:14.778Z,8.73
2018-04-05T02:21:14.784Z,8.75
2018-04-05T02:22:14.791Z,8.76
2018-04-05T02:23:14.796Z,8.75
2018-04-05T02:24:14.804Z,8.69
2018-04-05T02:25:14.812Z,8.69
2018-04-05T02:26:14.826Z,8.73
2018-04-05T02:27:14.830Z,8.72
2018-04-05T02:28:14.838Z,8.63
2018-04-05T02:29:14.844Z,8.65
2018-04-05T02:30:14.853Z,8.62
2018-04-05T02:31:14.861Z,8.65
2018-04-05T02:32:14.870Z,8.78
2018-04-05T02:33:14.879Z,8.79
2018-04-05T02:34:14.887Z,8.75
2018-04-05T02:35:14.892Z,8.78
2018-04-05T02:36:14.902Z,8.78
2018-04-05T02:37:14.915Z,8.76
2018-04-05T02:38:14.916Z,8.75
2018-04-05T02:39:14.926Z,8.73
2018-04-05T02:40:14.932Z,8.78
2018-04-05T02:41:14.964Z,8.72
2018-04-05T02:42:14.950Z,8.71
2018-04-05T02:43:14.975Z,8.71
2018-04-05T02:44:14.964Z,8.75
2018-04-05T02:45:14.974Z,8.62
2018-04-05T02:46:14.986Z,8.65
2018-04-05T02:47:14.989Z,8.63
2018-04-05T02:48:15.650Z,8.65
2018-04-05T02:49:15.008Z,8.65
2018-04-05T02:50:15.013Z,8.63
2018-04-05T02:51:15.023Z,8.69
2018-04-05T02:52:15.029Z,8.63
2018-04-05T02:53:15.034Z,8.68
2018-04-05T02:54:15.044Z,8.63
2018-04-05T02:55:15.050Z,8.65
2018-04-05T02:56:15.058Z,8.63
2018-04-05T02:57:15.069Z,8.54
2018-04-05T02:58:15.074Z,8.53
2018-04-05T02:59:15.084Z,8.58
2018-04-05T03:00:15.095Z,8.60
2018-04-05T03:01:15.100Z,8.51
2018-04-05T03:02:15.109Z,8.51
2018-04-05T03:03:15.113Z,8.60
2018-04-05T03:04:15.122Z,8.58
2018-04-05T03:05:15.134Z,8.57
2018-04-05T03:06:15.138Z,8.57
2018-04-05T03:07:15.150Z,8.54
2018-04-05T03:08:15.154Z,8.58
2018-04-05T03:09:15.163Z,8.60
2018-04-05T03:10:15.171Z,8.53
2018-04-05T03:11:15.176Z,8.50
2018-04-05T03:12:15.185Z,8.48
2018-04-05T03:13:15.196Z,8.48
2018-04-05T03:14:15.206Z,8.54
2018-04-05T03:15:15.211Z,8.40
2018-04-05T03:16:15.217Z,8.42
2018-04-05T03:17:15.228Z,8.39
2018-04-05T03:18:15.244Z,8.37
2018-04-05T03:19:15.241Z,8.36
2018-04-05T03:20:15.249Z,8.37
2018-04-05T03:21:15.256Z,8.37
2018-04-05T03:22:15.269Z,8.40
2018-04-05T03:23:15.277Z,8.36
2018-04-05T03:24:15.283Z,8.37
2018-04-05T03:25:15.287Z,8.37
2018-04-05T03:26:15.299Z,8.42
2018-04-05T03:27:15.307Z,8.44
2018-04-05T03:28:15.318Z,8.33
2018-04-05T03:29:15.319Z,8.37
2018-04-05T03:30:15.359Z,8.40
2018-04-05T03:31:15.343Z,8.33
2018-04-05T03:32:15.345Z,8.35
2018-04-05T03:33:15.354Z,8.30
2018-04-05T03:34:15.361Z,8.33
2018-04-05T03:35:15.397Z,8.33
2018-04-05T03:36:15.391Z,8.28
2018-04-05T03:37:15.388Z,8.33
2018-04-05T03:38:15.419Z,8.25
2018-04-05T03:39:15.402Z,8.30
2018-04-05T03:40:15.417Z,8.21
2018-04-05T03:41:15.415Z,8.20
2018-04-05T03:42:15.424Z,8.29
2018-04-05T03:43:15.464Z,8.14
2018-04-05T03:44:15.445Z,8.14
2018-04-05T03:45:15.445Z,8.15
2018-04-05T03:46:15.459Z,8.12
2018-04-05T03:47:15.464Z,8.14
2018-04-05T03:48:15.582Z,8.17
2018-04-05T03:49:15.497Z,8.00
2018-04-05T03:50:15.489Z,8.15
2018-04-05T03:51:15.523Z,8.14
2018-04-05T03:52:15.511Z,8.10
2018-04-05T03:53:15.511Z,8.03
2018-04-05T03:54:15.570Z,8.02
2018-04-05T03:55:15.528Z,8.17
2018-04-05T03:56:15.533Z,8.17
2018-04-05T03:57:15.552Z,8.08
2018-04-05T03:58:15.550Z,8.04
2018-04-05T03:59:15.555Z,8.08
2018-04-05T04:00:15.567Z,7.96
2018-04-05T04:01:15.789Z,8.02
2018-04-05T04:02:15.584Z,8.03
2018-04-05T04:03:15.586Z,8.08
2018-04-05T04:04:15.594Z,8.04
2018-04-05T04:05:15.608Z,8.08
2018-04-05T04:06:15.612Z,8.04
2018-04-05T04:07:15.624Z,8.14
2018-04-05T04:08:15.654Z,7.97
2018-04-05T04:09:15.637Z,8.04
2018-04-05T04:10:15.643Z,8.02
2018-04-05T04:11:15.654Z,8.07
2018-04-05T04:12:15.659Z,8.17
2018-04-05T04:13:15.666Z,8.11
2018-04-05T04:14:15.678Z,8.03
2018-04-05T04:15:15.700Z,8.03
2018-04-05T04:16:15.688Z,7.97
2018-04-05T04:17:15.698Z,8.07
2018-04-05T04:18:15.704Z,8.00
2018-04-05T04:19:15.712Z,8.15
2018-04-05T04:20:15.726Z,7.99
2018-04-05T04:21:15.727Z,7.92
2018-04-05T04:22:15.739Z,7.90
2018-04-05T04:23:15.743Z,7.89
2018-04-05T04:24:15.756Z,7.96
2018-04-05T04:25:15.756Z,7.90
2018-04-05T04:26:15.785Z,7.92
2018-04-05T04:27:15.780Z,7.92
2018-04-05T04:28:15.781Z,7.93
2018-04-05T04:29:15.795Z,7.87
2018-04-05T04:30:15.798Z,7.85
2018-04-05T04:31:15.805Z,7.92
2018-04-05T04:32:15.821Z,7.87
2018-04-05T04:33:15.823Z,7.87
2018-04-05T04:34:15.834Z,7.87
2018-04-05T04:35:15.833Z,7.93
2018-04-05T04:36:15.843Z,7.90
2018-04-05T04:37:15.851Z,7.90
2018-04-05T04:38:15.863Z,7.90
2018-04-05T04:39:15.864Z,7.92
2018-04-05T04:40:15.881Z,7.90
2018-04-05T04:41:15.889Z,7.93
2018-04-05T04:42:16.969Z,7.90
2018-04-05T04:43:15.908Z,7.92
2018-04-05T04:44:15.910Z,7.90
2018-04-05T04:45:15.914Z,7.87
2018-04-05T04:46:15.923Z,7.90
2018-04-05T04:47:15.929Z,7.82
2018-04-05T04:48:15.936Z,7.89
2018-04-05T04:49:15.944Z,7.84
2018-04-05T04:50:15.960Z,7.87
2018-04-05T04:51:15.961Z,7.93
2018-04-05T04:52:15.964Z,7.81
2018-04-05T04:53:15.981Z,7.92
2018-04-05T04:54:15.981Z,7.90
2018-04-05T04:55:15.988Z,7.90
2018-04-05T04:56:16.000Z,7.92
2018-04-05T04:57:16.009Z,7.92
2018-04-05T04:58:16.016Z,7.90
2018-04-05T04:59:16.021Z,7.92
2018-04-05T05:00:16.025Z,7.92
2018-04-05T05:01:16.032Z,7.94
2018-04-05T05:02:16.043Z,7.87
2018-04-05T05:03:16.053Z,7.93
2018-04-05T05:04:16.065Z,7.82
2018-04-05T05:05:16.064Z,7.92
2018-04-05T05:06:16.077Z,7.90
2018-04-05T05:07:16.080Z,7.79
2018-04-05T05:08:16.090Z,7.84
2018-04-05T05:09:16.095Z,7.87
2018-04-05T05:10:16.118Z,7.84
2018-04-05T05:11:16.110Z,7.87
2018-04-05T05:12:16.120Z,7.90
2018-04-05T05:13:16.126Z,7.82
2018-04-05T05:14:16.134Z,7.89
2018-04-05T05:15:16.142Z,7.85
2018-04-05T05:16:16.162Z,7.85
2018-04-05T05:17:16.157Z,7.90
2018-04-05T05:18:16.167Z,7.82
2018-04-05T05:19:16.172Z,7.89
2018-04-05T05:20:16.181Z,7.85
2018-04-05T05:21:16.201Z,7.87
2018-04-05T05:22:16.210Z,7.87
2018-04-05T05:23:16.247Z,7.81
2018-04-05T05:24:16.228Z,7.84
2018-04-05T05:25:16.223Z,7.84
2018-04-05T05:26:16.225Z,7.90
2018-04-05T05:27:16.233Z,7.87
2018-04-05T05:28:16.246Z,7.93
2018-04-05T05:29:16.252Z,7.94
2018-04-05T05:30:16.263Z,8.02
2018-04-05T05:31:16.265Z,8.02
2018-04-05T05:32:16.270Z,8.03
2018-04-05T05:33:16.281Z,8.07
2018-04-05T05:34:16.294Z,8.07
2018-04-05T05:35:16.294Z,8.02
2018-04-05T05:36:16.304Z,8.11
2018-04-05T05:37:16.310Z,8.11
2018-04-05T05:38:16.324Z,8.10
2018-04-05T05:39:16.323Z,8.17
2018-04-05T05:40:16.346Z,8.14
2018-04-05T05:41:16.352Z,8.12
2018-04-05T05:42:16.349Z,8.17
2018-04-05T05:43:16.368Z,8.18
2018-04-05T05:44:16.365Z,8.18
2018-04-05T05:46:48.798Z,8.07
2018-04-05T05:47:49.016Z,8.03
2018-04-05T05:48:48.865Z,8.08
2018-04-05T05:49:48.885Z,8.20
2018-04-05T05:50:48.824Z,8.20
2018-04-05T05:51:48.847Z,8.18
2018-04-05T05:52:48.702Z,8.21
2018-04-05T05:53:48.756Z,8.25
2018-04-05T05:54:48.796Z,8.28
2018-04-05T05:55:48.778Z,8.35
2018-04-05T05:56:49.061Z,8.37
2018-04-05T05:57:48.744Z,8.32
2018-04-05T05:58:48.903Z,8.30
2018-04-05T05:59:48.802Z,8.33
2018-04-05T06:00:48.815Z,8.39
2018-04-05T06:01:48.865Z,8.40
2018-04-05T06:02:48.824Z,8.50
2018-04-05T06:03:48.828Z,8.57
2018-04-05T06:04:48.909Z,8.63
2018-04-05T06:05:48.901Z,8.57
2018-04-05T06:06:48.821Z,8.76
2018-04-05T06:07:48.862Z,8.79
2018-04-05T06:08:49.030Z,8.71
2018-04-05T06:09:49.120Z,8.88
2018-04-05T06:10:48.961Z,8.79
2018-04-05T06:11:48.899Z,8.94
2018-04-05T06:12:48.841Z,8.84
2018-04-05T06:13:48.907Z,8.96
2018-04-05T06:14:49.167Z,9.10
2018-04-05T06:15:48.870Z,9.12
2018-04-05T06:16:49.154Z,9.20
2018-04-05T06:17:49.170Z,9.24
2018-04-05T06:18:49.066Z,9.27
2018-04-05T06:19:49.091Z,9.38
2018-04-05T06:20:49.145Z,9.39
2018-04-05T06:21:49.010Z,9.45
2018-04-05T06:22:49.009Z,9.42
2018-04-05T06:23:48.993Z,9.45
2018-04-05T06:24:49.005Z,9.63
2018-04-05T06:25:49.249Z,9.64
2018-04-05T06:26:49.058Z,9.68
2018-04-05T06:27:49.216Z,9.89
2018-04-05T06:28:49.519Z,9.91
2018-04-05T06:29:49.151Z,9.96
2018-04-05T06:30:49.138Z,9.99
2018-04-05T06:31:48.970Z,10.01
2018-04-05T06:32:49.070Z,9.91
2018-04-05T06:33:49.094Z,9.96
2018-04-05T06:34:49.113Z,9.94
2018-04-05T06:35:49.122Z,10.03
2018-04-05T06:36:49.094Z,9.99
2018-04-05T06:37:49.104Z,9.97
2018-04-05T06:38:49.112Z,10.03
2018-04-05T06:39:49.140Z,9.86
2018-04-05T06:40:49.161Z,9.93
2018-04-05T06:41:49.183Z,9.93
2018-04-05T06:42:49.212Z,9.86
2018-04-05T06:43:49.225Z,9.93
2018-04-05T06:44:49.172Z,9.91
2018-04-05T06:45:49.294Z,9.89
2018-04-05T06:46:49.179Z,10.06
2018-04-05T06:47:49.396Z,10.04
2018-04-05T06:48:49.332Z,10.21
2018-04-05T06:49:49.619Z,10.25
2018-04-05T06:50:49.530Z,10.30
2018-04-05T06:51:49.367Z,10.26
2018-04-05T06:52:49.234Z,10.26
2018-04-05T06:53:49.246Z,10.22
2018-04-05T06:54:49.247Z,10.21
2018-04-05T06:55:49.257Z,10.25
2018-04-05T06:56:49.270Z,10.21
2018-04-05T06:57:49.271Z,10.26
2018-04-05T06:58:49.278Z,10.25
2018-04-05T06:59:49.430Z,10.22
2018-04-05T07:00:49.296Z,10.34
2018-04-05T07:01:49.317Z,10.14
2018-04-05T07:02:49.337Z,10.33
2018-04-05T07:03:49.323Z,10.21
2018-04-05T07:04:49.331Z,10.36
2018-04-05T07:05:49.343Z,10.34
2018-04-05T07:06:49.353Z,10.40
2018-04-05T07:07:49.358Z,10.51
2018-04-05T07:08:49.367Z,10.51
2018-04-05T07:09:49.375Z,10.42
2018-04-05T07:10:49.394Z,10.47
2018-04-05T07:11:49.453Z,10.55
2018-04-05T07:12:49.412Z,10.58
2018-04-05T07:13:49.411Z,10.56
2018-04-05T07:14:49.420Z,10.55
2018-04-05T07:15:49.435Z,10.51
2018-04-05T07:16:49.539Z,10.53
2018-04-05T07:17:49.448Z,10.52
2018-04-05T07:18:49.465Z,10.40
2018-04-05T07:19:49.474Z,10.39
2018-04-05T07:20:49.513Z,10.59
2018-04-05T07:21:49.487Z,10.60
2018-04-05T07:22:49.514Z,10.76
2018-04-05T07:23:49.499Z,10.77
2018-04-05T07:24:49.509Z,10.81
2018-04-05T07:25:49.520Z,10.78
2018-04-05T07:26:49.530Z,10.68
2018-04-05T07:27:49.552Z,10.81
2018-04-05T07:28:49.577Z,10.88
2018-04-05T07:29:49.553Z,11.01
2018-04-05T07:30:49.593Z,11.02
2018-04-05T07:31:49.573Z,11.14
2018-04-05T07:32:49.579Z,11.28
2018-04-05T07:33:49.589Z,11.41
2018-04-05T07:34:49.597Z,11.49
2018-04-05T07:35:49.738Z,11.47
2018-04-05T07:36:49.616Z,11.53
2018-04-05T07:37:49.684Z,11.71
2018-04-05T07:38:49.632Z,11.56
2018-04-05T07:39:49.665Z,11.50
2018-04-05T07:40:49.652Z,11.72
2018-04-05T07:41:49.659Z,11.86
2018-04-05T07:42:49.758Z,11.94
2018-04-05T07:43:49.792Z,11.93
2018-04-05T07:44:49.688Z,12.01
2018-04-05T07:45:49.666Z,12.11
2018-04-05T07:46:49.765Z,12.02
2018-04-05T07:47:49.809Z,12.23
2018-04-05T07:48:49.755Z,12.15
2018-04-05T07:49:49.776Z,12.20
2018-04-05T07:50:49.686Z,12.06
2018-04-05T07:51:49.758Z,12.11
2018-04-05T07:52:49.665Z,12.16
2018-04-05T07:53:49.898Z,12.13
2018-04-05T07:54:49.812Z,12.34
2018-04-05T07:55:49.812Z,12.45
2018-04-05T07:56:49.899Z,12.27
2018-04-05T07:57:49.715Z,12.41
2018-04-05T07:58:49.862Z,12.54
2018-04-05T07:59:49.889Z,12.33
2018-04-05T08:00:50.009Z,12.37
2018-04-05T08:01:49.854Z,12.41
2018-04-05T08:02:49.859Z,12.42
2018-04-05T08:03:49.869Z,12.44
2018-04-05T08:04:49.887Z,12.45
2018-04-05T08:05:49.958Z,12.42
2018-04-05T08:06:49.903Z,12.16
2018-04-05T08:07:49.906Z,12.12
2018-04-05T08:08:49.919Z,12.15
2018-04-05T08:09:49.946Z,12.39
2018-04-05T08:10:49.937Z,12.16
2018-04-05T08:11:50.009Z,12.09
2018-04-05T08:12:50.054Z,12.04
2018-04-05T08:13:49.968Z,12.13
2018-04-05T08:14:49.981Z,12.11
2018-04-05T08:15:49.987Z,12.13
2018-04-05T08:16:50.000Z,12.19
2018-04-05T08:17:50.019Z,12.39
2018-04-05T08:18:50.015Z,12.16
2018-04-05T08:19:50.028Z,12.11
2018-04-05T08:20:50.037Z,12.09
2018-04-05T08:21:50.060Z,12.02
2018-04-05T08:22:50.056Z,12.02
2018-04-05T08:23:50.072Z,12.06
2018-04-05T08:24:50.089Z,11.96
2018-04-05T08:25:50.136Z,11.99
2018-04-05T08:26:50.096Z,12.08
2018-04-05T08:27:50.139Z,12.04
2018-04-05T08:28:50.145Z,12.19
2018-04-05T08:29:50.131Z,12.16
2018-04-05T08:30:50.136Z,12.11
2018-04-05T08:31:50.143Z,12.15
2018-04-05T08:32:50.154Z,12.05
2018-04-05T08:33:50.164Z,12.04
2018-04-05T08:34:50.175Z,12.08
2018-04-05T08:35:50.187Z,12.19
2018-04-05T08:36:50.204Z,12.30
2018-04-05T08:37:50.203Z,12.34
2018-04-05T08:38:50.221Z,12.52
2018-04-05T08:39:50.257Z,12.51
2018-04-05T08:40:50.235Z,12.44
2018-04-05T08:41:50.581Z,12.42
2018-04-05T08:42:50.306Z,12.39
2018-04-05T08:43:50.266Z,12.21
2018-04-05T08:44:50.275Z,12.11
2018-04-05T08:45:50.285Z,12.16
2018-04-05T08:46:50.298Z,12.08
2018-04-05T08:47:50.306Z,11.99
2018-04-05T08:48:50.379Z,12.09
2018-04-05T08:49:50.343Z,12.09
2018-04-05T08:50:50.337Z,12.12
2018-04-05T08:51:50.363Z,12.06
2018-04-05T08:52:50.368Z,12.06
2018-04-05T08:53:50.370Z,12.21
2018-04-05T08:54:50.375Z,12.37
2018-04-05T08:55:50.460Z,12.39
2018-04-05T08:56:50.300Z,12.44
2018-04-05T08:57:50.465Z,12.59
2018-04-05T08:58:50.419Z,12.57
2018-04-05T08:59:50.428Z,12.69
2018-04-05T09:00:50.439Z,12.75
2018-04-05T09:01:50.447Z,12.74
2018-04-05T09:02:50.458Z,12.63
2018-04-05T09:03:50.468Z,12.57
2018-04-05T09:04:50.479Z,12.71
2018-04-05T09:05:50.488Z,12.82
2018-04-05T09:06:50.508Z,12.97
2018-04-05T09:07:50.508Z,12.89
2018-04-05T09:08:50.515Z,12.77
2018-04-05T09:09:50.529Z,12.54
2018-04-05T09:10:50.538Z,12.56
2018-04-05T09:11:50.553Z,12.74
2018-04-05T09:12:50.558Z,12.81
2018-04-05T09:13:50.595Z,12.75
2018-04-05T09:14:50.590Z,12.85
2018-04-05T09:15:50.590Z,12.89
2018-04-05T09:16:50.602Z,12.89
2018-04-05T09:17:50.622Z,12.87
2018-04-05T09:18:50.619Z,12.69
2018-04-05T09:19:50.629Z,12.70
2018-04-05T09:20:50.644Z,12.84
2018-04-05T09:21:50.651Z,12.96
2018-04-05T09:22:50.663Z,12.88
2018-04-05T09:23:50.671Z,12.87
2018-04-05T09:24:50.684Z,12.84
2018-04-05T09:25:50.698Z,12.87
2018-04-05T09:26:50.704Z,12.82
2018-04-05T09:27:50.728Z,12.84
2018-04-05T09:28:50.723Z,12.79
2018-04-05T09:29:50.734Z,12.89
2018-04-05T09:30:50.749Z,13.18
2018-04-05T09:31:50.752Z,13.21
2018-04-05T09:32:50.759Z,13.20
2018-04-05T09:33:50.821Z,13.14
2018-04-05T09:34:50.783Z,13.06
2018-04-05T09:35:50.795Z,12.92
2018-04-05T09:36:50.806Z,12.88
2018-04-05T09:37:50.811Z,12.96
2018-04-05T09:38:50.823Z,12.77
2018-04-05T09:39:50.836Z,12.75
2018-04-05T09:40:50.875Z,12.87
2018-04-05T09:41:50.856Z,12.97
2018-04-05T09:42:50.874Z,12.92
2018-04-05T09:43:50.877Z,13.22
2018-04-05T09:44:50.888Z,13.29
2018-04-05T09:45:50.894Z,13.27
2018-04-05T09:46:51.029Z,13.20
2018-04-05T09:47:50.978Z,13.21
2018-04-05T09:48:51.557Z,13.25
2018-04-05T09:49:50.945Z,13.43
2018-04-05T09:50:50.857Z,13.40
2018-04-05T09:51:50.962Z,13.46
2018-04-05T09:52:51.016Z,13.24
2018-04-05T09:53:50.988Z,13.27
2018-04-05T09:54:51.022Z,13.20
2018-04-05T09:55:51.010Z,13.29
2018-04-05T09:56:51.015Z,13.33
2018-04-05T09:57:51.025Z,13.33
2018-04-05T09:58:51.039Z,13.38
2018-04-05T09:59:51.045Z,13.54
2018-04-05T10:00:51.061Z,13.44
2018-04-05T10:01:51.073Z,13.41
2018-04-05T10:02:51.081Z,13.51
2018-04-05T10:03:51.088Z,13.56
2018-04-05T10:04:51.098Z,13.46
2018-04-05T10:05:51.110Z,13.62
2018-04-05T10:06:51.174Z,13.74
2018-04-05T10:07:51.134Z,13.89
2018-04-05T10:08:51.142Z,14.21
2018-04-05T10:09:51.153Z,14.06
2018-04-05T10:10:51.164Z,13.99
2018-04-05T10:11:51.178Z,13.98
2018-04-05T10:12:51.188Z,13.95
2018-04-05T10:13:51.230Z,13.73
2018-04-05T10:14:51.212Z,13.62
2018-04-05T10:15:51.221Z,13.43
2018-04-05T10:16:51.228Z,13.59
2018-04-05T10:17:51.246Z,13.61
2018-04-05T10:18:51.253Z,13.65
2018-04-05T10:19:51.312Z,13.77
2018-04-05T10:20:51.308Z,13.54
2018-04-05T10:21:51.282Z,13.20
2018-04-05T10:22:51.351Z,13.41
2018-04-05T10:23:51.307Z,13.63
2018-04-05T10:24:51.314Z,13.80
2018-04-05T10:25:51.329Z,14.04
2018-04-05T10:26:51.344Z,13.81
2018-04-05T10:27:51.386Z,13.79
2018-04-05T10:28:51.360Z,13.99
2018-04-05T10:29:51.370Z,13.80
2018-04-05T10:30:51.396Z,13.61
2018-04-05T10:31:51.393Z,13.71
2018-04-05T10:32:51.432Z,13.89
2018-04-05T10:33:51.426Z,13.88
2018-04-05T10:34:51.428Z,14.14
2018-04-05T10:35:51.443Z,14.29
2018-04-05T10:36:51.451Z,14.29
2018-04-05T10:37:51.466Z,14.27
2018-04-05T10:38:51.524Z,14.28
2018-04-05T10:39:51.490Z,14.24
2018-04-05T10:40:52.117Z,14.10
2018-04-05T10:41:51.510Z,13.83
2018-04-05T10:42:51.522Z,13.80
2018-04-05T10:43:51.534Z,13.99
2018-04-05T10:44:51.581Z,13.87
2018-04-05T10:45:51.551Z,13.67
2018-04-05T10:46:51.566Z,13.79
2018-04-05T10:47:51.579Z,13.70
2018-04-05T10:48:51.587Z,13.99
2018-04-05T10:49:51.602Z,14.16
2018-04-05T10:50:51.611Z,14.24
2018-04-05T10:51:51.626Z,14.57
2018-04-05T10:52:51.635Z,14.34
2018-04-05T10:53:51.644Z,14.57
2018-04-05T10:54:51.658Z,15.39
2018-04-05T10:55:51.669Z,16.04
2018-04-05T10:56:51.759Z,16.42
2018-04-05T10:57:51.717Z,16.40
2018-04-05T10:58:51.719Z,17.08
2018-04-05T10:59:51.721Z,17.47
2018-04-05T11:00:51.730Z,17.62
2018-04-05T11:01:51.778Z,17.95
2018-04-05T11:02:51.765Z,18.73
2018-04-05T11:03:51.996Z,18.06
2018-04-05T11:04:51.963Z,17.79
2018-04-05T11:05:51.810Z,16.75
2018-04-05T11:06:51.871Z,17.22
2018-04-05T11:07:51.841Z,17.36
2018-04-05T11:08:51.865Z,17.03
2018-04-05T11:09:51.880Z,17.43
2018-04-05T11:10:51.904Z,17.81
2018-04-05T11:11:51.906Z,18.04
2018-04-05T11:12:51.983Z,18.73
2018-04-05T11:13:51.943Z,19.10
2018-04-05T11:14:51.959Z,18.91
2018-04-05T11:15:51.999Z,17.88
2018-04-05T11:16:51.996Z,17.67
2018-04-05T11:17:52.043Z,16.99
2018-04-05T11:18:52.038Z,16.18
2018-04-05T11:19:52.053Z,15.56
2018-04-05T11:20:52.161Z,14.94
2018-04-05T11:21:52.105Z,14.31
2018-04-05T11:22:52.131Z,13.49
2018-04-05T11:23:52.126Z,13.27
2018-04-05T11:24:52.147Z,13.41
2018-04-05T11:25:52.163Z,13.22
2018-04-05T11:26:52.174Z,12.96
2018-04-05T11:27:52.311Z,12.97
2018-04-05T11:28:52.206Z,13.00
2018-04-05T11:29:52.456Z,13.29
2018-04-05T11:30:52.287Z,13.40
2018-04-05T11:31:52.250Z,14.12
2018-04-05T11:32:52.271Z,15.76
2018-04-05T11:33:52.280Z,16.45
2018-04-05T11:34:52.300Z,17.00
2018-04-05T11:35:52.315Z,17.29
2018-04-05T11:36:52.331Z,17.20
2018-04-05T11:37:52.346Z,17.15
2018-04-05T11:38:52.358Z,17.23
2018-04-05T11:39:52.374Z,17.13
2018-04-05T11:40:52.394Z,16.90
2018-04-05T11:41:52.407Z,17.46
2018-04-05T11:42:52.424Z,17.44
2018-04-05T11:43:52.467Z,17.32
2018-04-05T11:44:52.488Z,18.31
2018-04-05T11:45:59.588Z,17.85
2018-04-05T11:47:56.436Z,16.18
2018-04-05T11:48:56.425Z,15.60
2018-04-05T11:51:00.477Z,16.09
2018-04-05T11:52:00.484Z,15.70
2018-04-05T11:53:00.496Z,15.59
2018-04-05T11:54:00.529Z,15.54
2018-04-05T11:55:00.548Z,15.70
2018-04-05T11:56:00.612Z,15.81
2018-04-05T11:57:00.554Z,15.36
2018-04-05T11:58:00.584Z,15.36
2018-04-05T11:59:00.589Z,15.26
2018-04-05T12:00:00.614Z,15.72
2018-04-05T12:01:00.623Z,15.64
2018-04-05T12:02:00.635Z,14.99
2018-04-05T12:03:00.659Z,15.03
2018-04-05T12:04:00.669Z,15.39
2018-04-05T12:05:00.682Z,15.24
2018-04-05T12:06:00.704Z,14.93
2018-04-05T12:07:00.714Z,14.62
2018-04-05T12:08:00.753Z,14.90
2018-04-05T12:09:00.745Z,15.21
2018-04-05T12:10:00.758Z,15.27
2018-04-05T12:11:00.773Z,15.09
2018-04-05T12:12:00.789Z,14.80
2018-04-05T12:13:00.826Z,15.20
2018-04-05T12:14:00.823Z,17.23
2018-04-05T12:15:00.830Z,17.06
2018-04-05T12:16:00.848Z,18.40
2018-04-05T12:17:00.861Z,18.70
2018-04-05T12:18:00.875Z,18.15
2018-04-05T12:19:00.891Z,17.53
2018-04-05T12:20:00.915Z,17.35
2018-04-05T12:21:00.922Z,16.31
2018-04-05T12:22:00.938Z,18.31
2018-04-05T12:23:00.952Z,19.23
2018-04-05T12:24:00.977Z,17.59
2018-04-05T12:25:00.988Z,17.99
2018-04-05T12:26:01.010Z,17.73
2018-04-05T12:27:01.021Z,18.34
2018-04-05T12:28:01.037Z,17.17
2018-04-05T12:29:01.053Z,19.15
2018-04-05T12:30:01.070Z,19.54
2018-04-05T12:31:01.091Z,20.13
2018-04-05T12:32:01.122Z,20.16
2018-04-05T12:33:01.128Z,19.39
2018-04-05T12:34:01.153Z,20.18
2018-04-05T12:35:01.160Z,20.33
2018-04-05T12:36:01.183Z,19.57
2018-04-05T12:37:01.209Z,19.73
2018-04-05T12:38:01.229Z,20.12
2018-04-05T12:39:01.239Z,19.66
2018-04-05T12:40:01.257Z,19.20
2018-04-05T12:41:01.279Z,19.33
2018-04-05T12:42:01.300Z,19.97
2018-04-05T12:43:01.323Z,20.65
2018-04-05T12:44:01.346Z,21.78
2018-04-05T12:45:01.379Z,22.46
2018-04-05T12:46:01.390Z,21.82
2018-04-05T12:47:01.412Z,19.84
2018-04-05T12:48:01.477Z,18.34
2018-04-05T12:49:01.451Z,17.11
2018-04-05T12:50:01.475Z,16.95
2018-04-05T12:51:01.496Z,18.12
2018-04-05T12:52:01.515Z,19.61
2018-04-05T12:53:01.541Z,20.35
2018-04-05T12:54:01.557Z,20.10
2018-04-05T12:55:01.582Z,20.02
2018-04-05T12:56:01.601Z,19.15
2018-04-05T12:57:01.635Z,18.62
2018-04-05T12:58:01.649Z,17.57
2018-04-05T12:59:01.669Z,16.88
2018-04-05T13:00:01.687Z,16.41
2018-04-05T13:01:01.707Z,17.70
2018-04-05T13:02:01.722Z,17.95
2018-04-05T13:03:01.751Z,18.43
2018-04-05T13:04:01.776Z,20.06
2018-04-05T13:05:01.783Z,20.56
2018-04-05T13:06:01.842Z,18.54
2018-04-05T13:07:01.825Z,18.42
2018-04-05T13:08:01.847Z,18.09
2018-04-05T13:09:01.869Z,18.40